Time;durP1;ratioP1;P1;durP2;ratioP2;P2;SDS_P1;SDS_P2;PMS_P1;PMS_P2;Temp;Humidity;BMP_temperature;BMP_pressure;BME280_temperature;BME280_humidity;BME280_pressure;Samples;Min_cycle;Max_cycle;Signal;HPM_P1;HPM_P2
2023/05/19 00:02:19;;;;;;;5.70;1.67;;;;;;;;;;4931282;29;20481;-62
2023/05/19 00:04:46;;;;;;;3.70;2.03;;;;;;;;;;4923944;29;20492;-63
2023/05/19 00:07:16;;;;;;;6.07;2.47;;;;;;;;;;4931664;29;20028;-64
2023/05/19 00:09:42;;;;;;;4.82;1.70;;;;;;;;;;4930288;29;20560;-62
2023/05/19 00:12:09;;;;;;;7.38;1.92;;;;;;;;;;4930462;29;20166;-63
2023/05/19 00:14:35;;;;;;;4.57;1.98;;;;;;;;;;4926606;29;20086;-64
2023/05/19 00:17:00;;;;;;;2.42;1.35;;;;;;;;;;4926913;29;20768;-64
2023/05/19 00:19:30;;;;;;;4.32;1.80;;;;;;;;;;4930049;29;20477;-65
2023/05/19 00:21:56;;;;;;;3.10;1.80;;;;;;;;;;4930493;29;20059;-64
2023/05/19 00:24:22;;;;;;;5.97;2.45;;;;;;;;;;4930620;29;20035;-63
2023/05/19 00:26:47;;;;;;;5.80;2.42;;;;;;;;;;4931549;29;20055;-64
2023/05/19 00:29:17;;;;;;;5.30;2.20;;;;;;;;;;4930962;29;20028;-64
2023/05/19 00:31:42;;;;;;;3.13;1.70;;;;;;;;;;4930351;29;20098;-63
2023/05/19 00:34:08;;;;;;;4.70;2.20;;;;;;;;;;4931177;29;20031;-63
2023/05/19 00:36:33;;;;;;;4.20;2.00;;;;;;;;;;4931348;29;20548;-64
2023/05/19 00:38:58;;;;;;;5.18;1.67;;;;;;;;;;4931256;29;20030;-63
2023/05/19 00:41:24;;;;;;;4.97;2.00;;;;;;;;;;4923378;29;20039;-65
2023/05/19 00:43:50;;;;;;;4.43;1.80;;;;;;;;;;4930071;29;20518;-64
2023/05/19 00:46:15;;;;;;;4.13;1.92;;;;;;;;;;4933100;29;20031;-64
2023/05/19 00:48:43;;;;;;;3.45;2.00;;;;;;;;;;4930705;29;20028;-62
2023/05/19 00:51:13;;;;;;;3.47;1.58;;;;;;;;;;4925135;29;20028;-65
2023/05/19 00:53:39;;;;;;;3.25;1.42;;;;;;;;;;4929991;29;20055;-64
2023/05/19 00:56:04;;;;;;;5.05;1.30;;;;;;;;;;4930779;29;20292;-63
2023/05/19 00:58:32;;;;;;;3.50;1.55;;;;;;;;;;4929790;28;20023;-63
2023/05/19 01:01:06;;;;;;;4.55;1.80;;;;;;;;;;4931975;29;20027;-62
2023/05/19 01:03:36;;;;;;;3.50;1.40;;;;;;;;;;4924090;29;20084;-63
2023/05/19 01:06:04;;;;;;;3.92;1.67;;;;;;;;;;4928755;29;20110;-65
2023/05/19 01:08:36;;;;;;;5.97;1.80;;;;;;;;;;4930330;29;20039;-63
2023/05/19 01:11:02;;;;;;;3.30;1.63;;;;;;;;;;4929961;29;20023;-64
2023/05/19 01:13:28;;;;;;;6.10;2.03;;;;;;;;;;4930994;29;20028;-65
2023/05/19 01:16:23;;;;;;;6.30;1.45;;;;;;;;;;4927289;29;20035;-64
2023/05/19 01:19:00;;;;;;;1.58;1.33;;;;;;;;;;4928879;29;20117;-64
2023/05/19 01:21:47;;;;;;;3.17;1.80;;;;;;;;;;4928403;29;20038;-65
2023/05/19 01:24:40;;;;;;;2.28;1.40;;;;;;;;;;4931357;29;20085;-63
2023/05/19 01:27:14;;;;;;;3.15;1.38;;;;;;;;;;4927026;29;20039;-64
2023/05/19 01:29:54;;;;;;;3.95;1.65;;;;;;;;;;4926557;29;20083;-63
2023/05/19 01:32:22;;;;;;;4.05;1.55;;;;;;;;;;4926612;29;20035;-63
2023/05/19 01:34:49;;;;;;;6.25;2.10;;;;;;;;;;4930380;29;20023;-64
2023/05/19 01:37:16;;;;;;;4.88;1.90;;;;;;;;;;4929504;29;20820;-65
2023/05/19 01:39:42;;;;;;;3.65;1.70;;;;;;;;;;4929726;29;20484;-63
2023/05/19 01:42:08;;;;;;;3.13;1.50;;;;;;;;;;4924275;29;20043;-63
2023/05/19 01:44:34;;;;;;;2.70;1.65;;;;;;;;;;4923017;29;20040;-64
2023/05/19 01:47:00;;;;;;;4.03;2.13;;;;;;;;;;4926258;29;20036;-62
2023/05/19 01:49:26;;;;;;;4.65;1.55;;;;;;;;;;4928174;29;20404;-64
2023/05/19 01:51:51;;;;;;;2.70;1.65;;;;;;;;;;4930021;29;20055;-64
2023/05/19 01:54:17;;;;;;;4.45;1.90;;;;;;;;;;4928240;29;20012;-64
2023/05/19 01:57:12;;;;;;;3.53;1.63;;;;;;;;;;4927455;29;20086;-64
2023/05/19 02:00:17;;;;;;;3.17;1.40;;;;;;;;;;4928735;29;20536;-63
2023/05/19 02:02:52;;;;;;;1.98;1.27;;;;;;;;;;4927967;28;20070;-64
2023/05/19 02:05:28;;;;;;;2.10;1.33;;;;;;;;;;4928709;29;20030;-65
2023/05/19 02:08:24;;;;;;;3.83;1.60;;;;;;;;;;4930001;29;20385;-64
2023/05/19 02:10:56;;;;;;;3.05;1.52;;;;;;;;;;4926761;29;20024;-64
2023/05/19 02:13:27;;;;;;;4.28;1.90;;;;;;;;;;4929378;29;20063;-64
2023/05/19 02:15:57;;;;;;;4.88;2.88;;;;;;;;;;4920882;29;20040;-63
2023/05/19 02:18:23;;;;;;;4.07;1.70;;;;;;;;;;4929143;29;20481;-64
2023/05/19 02:20:49;;;;;;;3.17;1.92;;;;;;;;;;4929402;29;20027;-64
2023/05/19 02:23:14;;;;;;;3.83;1.73;;;;;;;;;;4927541;29;20496;-65
2023/05/19 02:25:40;;;;;;;3.38;1.40;;;;;;;;;;4926735;29;20082;-62
2023/05/19 02:28:05;;;;;;;4.22;1.48;;;;;;;;;;4931251;29;20656;-63
2023/05/19 02:30:31;;;;;;;4.55;1.92;;;;;;;;;;4924870;29;20028;-64
2023/05/19 02:32:56;;;;;;;2.97;1.40;;;;;;;;;;4931972;29;20080;-63
2023/05/19 02:35:21;;;;;;;4.97;1.73;;;;;;;;;;4925296;29;20584;-64
2023/05/19 02:37:47;;;;;;;4.57;1.58;;;;;;;;;;4929622;29;20034;-64
2023/05/19 02:40:12;;;;;;;4.10;1.80;;;;;;;;;;4929228;29;20024;-64
2023/05/19 02:42:38;;;;;;;2.33;1.52;;;;;;;;;;4929671;29;20472;-62
2023/05/19 02:45:03;;;;;;;6.22;1.80;;;;;;;;;;4930161;29;20028;-63
2023/05/19 02:47:29;;;;;;;3.33;1.48;;;;;;;;;;4931767;29;20031;-64
2023/05/19 02:49:54;;;;;;;4.80;1.65;;;;;;;;;;4929347;29;20070;-64
2023/05/19 02:52:20;;;;;;;4.38;1.98;;;;;;;;;;4929133;29;20023;-64
2023/05/19 02:54:45;;;;;;;3.40;1.60;;;;;;;;;;4928396;29;20028;-64
2023/05/19 02:57:10;;;;;;;3.42;1.58;;;;;;;;;;4928575;29;20048;-63
2023/05/19 02:59:36;;;;;;;2.42;1.60;;;;;;;;;;4924429;29;20057;-64
2023/05/19 03:02:01;;;;;;;3.38;1.70;;;;;;;;;;4935629;29;20476;-64
2023/05/19 03:04:28;;;;;;;3.92;2.50;;;;;;;;;;4928963;29;20024;-63
2023/05/19 03:06:54;;;;;;;7.50;2.22;;;;;;;;;;4928299;29;20166;-64
2023/05/19 03:09:19;;;;;;;4.35;1.60;;;;;;;;;;4929327;29;20118;-64
2023/05/19 03:11:44;;;;;;;4.93;1.80;;;;;;;;;;4918987;29;20050;-64
2023/05/19 03:14:13;;;;;;;4.82;2.03;;;;;;;;;;4929390;29;20020;-64
2023/05/19 03:16:40;;;;;;;2.70;1.85;;;;;;;;;;4924431;29;20036;-63
2023/05/19 03:19:06;;;;;;;6.43;1.98;;;;;;;;;;4925781;29;20086;-64
2023/05/19 03:21:33;;;;;;;7.63;2.05;;;;;;;;;;4922641;29;20089;-63
2023/05/19 03:23:59;;;;;;;8.80;1.60;;;;;;;;;;4932790;29;20031;-64
2023/05/19 03:26:25;;;;;;;2.40;1.52;;;;;;;;;;4932700;29;20035;-64
2023/05/19 03:28:50;;;;;;;5.30;1.83;;;;;;;;;;4932229;29;20053;-65
2023/05/19 03:31:16;;;;;;;3.88;2.10;;;;;;;;;;4931121;29;20028;-63
2023/05/19 03:33:41;;;;;;;3.03;1.63;;;;;;;;;;4930152;29;20031;-63
2023/05/19 03:36:06;;;;;;;4.60;1.90;;;;;;;;;;4929051;29;20051;-64
2023/05/19 03:38:32;;;;;;;4.13;1.48;;;;;;;;;;4931921;29;20040;-63
2023/05/19 03:40:57;;;;;;;2.15;1.50;;;;;;;;;;4935223;29;20032;-65
2023/05/19 03:43:23;;;;;;;4.38;1.70;;;;;;;;;;4934796;28;20042;-63
2023/05/19 03:45:48;;;;;;;4.32;1.70;;;;;;;;;;4922931;28;20044;-64
2023/05/19 03:48:14;;;;;;;3.08;1.48;;;;;;;;;;4930194;29;20030;-64
2023/05/19 03:50:41;;;;;;;4.50;1.63;;;;;;;;;;4931491;29;20066;-65
2023/05/19 03:53:06;;;;;;;3.90;1.95;;;;;;;;;;4931276;29;20020;-65
2023/05/19 03:55:32;;;;;;;3.17;1.80;;;;;;;;;;4932341;29;20039;-64
2023/05/19 03:57:57;;;;;;;3.10;1.52;;;;;;;;;;4925397;29;20024;-64
2023/05/19 04:00:24;;;;;;;6.25;1.60;;;;;;;;;;4931324;29;20039;-63
2023/05/19 04:02:50;;;;;;;6.30;1.60;;;;;;;;;;4932080;29;20028;-61
2023/05/19 04:05:15;;;;;;;4.18;1.95;;;;;;;;;;4931879;29;20027;-63
2023/05/19 04:07:41;;;;;;;4.75;1.60;;;;;;;;;;4932323;29;20552;-63
2023/05/19 04:10:07;;;;;;;4.95;1.98;;;;;;;;;;4931684;29;20055;-64
2023/05/19 04:12:32;;;;;;;5.18;1.80;;;;;;;;;;4930518;29;20067;-62
2023/05/19 04:14:58;;;;;;;2.83;1.30;;;;;;;;;;4930791;29;20028;-62
2023/05/19 04:17:25;;;;;;;3.47;1.50;;;;;;;;;;4930332;29;20108;-63
2023/05/19 04:19:51;;;;;;;3.95;1.70;;;;;;;;;;4931342;29;20035;-63
2023/05/19 04:22:17;;;;;;;3.33;1.33;;;;;;;;;;4930454;29;20042;-64
2023/05/19 04:24:42;;;;;;;3.50;1.65;;;;;;;;;;4931476;29;20465;-64
2023/05/19 04:27:10;;;;;;;3.35;1.60;;;;;;;;;;4927356;29;20233;-64
2023/05/19 04:29:36;;;;;;;2.90;1.80;;;;;;;;;;4926673;29;20103;-64
2023/05/19 04:32:06;;;;;;;3.95;1.92;;;;;;;;;;4936024;29;20068;-62
2023/05/19 04:34:39;;;;;;;2.55;1.25;;;;;;;;;;4925866;29;20023;-63
2023/05/19 04:37:08;;;;;;;3.63;1.48;;;;;;;;;;4926635;29;20094;-65
2023/05/19 04:39:37;;;;;;;2.55;1.50;;;;;;;;;;4931205;29;20023;-63
2023/05/19 04:42:03;;;;;;;5.57;1.60;;;;;;;;;;4931579;29;20102;-62
2023/05/19 04:44:28;;;;;;;2.38;1.50;;;;;;;;;;4930412;29;20063;-62
2023/05/19 04:46:56;;;;;;;2.53;1.38;;;;;;;;;;4926646;29;20035;-64
2023/05/19 04:49:23;;;;;;;3.63;1.45;;;;;;;;;;4933670;29;20031;-66
2023/05/19 04:51:50;;;;;;;6.13;2.30;;;;;;;;;;4921896;29;20028;-64
2023/05/19 04:54:15;;;;;;;9.90;2.00;;;;;;;;;;4931009;29;20106;-62
2023/05/19 04:56:42;;;;;;;4.38;1.73;;;;;;;;;;4930507;29;20152;-64
2023/05/19 04:59:09;;;;;;;6.18;1.98;;;;;;;;;;4931309;29;20118;-64
2023/05/19 05:01:39;;;;;;;5.25;2.15;;;;;;;;;;4927411;29;20636;-66
2023/05/19 05:04:05;;;;;;;5.07;1.80;;;;;;;;;;4923734;29;20027;-63
2023/05/19 05:06:30;;;;;;;3.35;1.35;;;;;;;;;;4922576;29;20032;-62
2023/05/19 05:08:56;;;;;;;3.38;1.65;;;;;;;;;;4931063;29;20036;-66
2023/05/19 05:11:22;;;;;;;6.38;2.58;;;;;;;;;;4930257;29;20555;-64
2023/05/19 05:13:47;;;;;;;6.35;1.75;;;;;;;;;;4926721;29;20032;-63
2023/05/19 05:16:13;;;;;;;2.25;1.40;;;;;;;;;;4932994;29;20055;-63
2023/05/19 05:18:39;;;;;;;4.30;1.50;;;;;;;;;;4929571;29;20115;-63
2023/05/19 05:21:05;;;;;;;1.33;1.20;;;;;;;;;;4930116;29;20050;-64
2023/05/19 05:23:31;;;;;;;3.40;1.65;;;;;;;;;;4929339;29;20488;-62
2023/05/19 05:25:57;;;;;;;4.97;2.15;;;;;;;;;;4925510;29;20055;-63
2023/05/19 05:28:22;;;;;;;1.60;0.98;;;;;;;;;;4929341;29;20024;-64
2023/05/19 05:30:49;;;;;;;3.88;2.15;;;;;;;;;;4934070;29;20027;-63
2023/05/19 05:33:15;;;;;;;4.95;2.05;;;;;;;;;;4925536;29;20027;-63
2023/05/19 05:35:40;;;;;;;2.40;1.58;;;;;;;;;;4931261;29;20026;-64
2023/05/19 05:38:06;;;;;;;6.13;1.90;;;;;;;;;;4923351;29;20062;-64
2023/05/19 05:40:31;;;;;;;4.38;1.73;;;;;;;;;;4928853;29;20043;-62
2023/05/19 05:42:59;;;;;;;3.63;2.28;;;;;;;;;;4930124;29;20042;-63
2023/05/19 05:45:25;;;;;;;6.10;1.83;;;;;;;;;;4932144;29;20111;-64
2023/05/19 05:47:50;;;;;;;6.07;2.08;;;;;;;;;;4931567;28;20094;-65
2023/05/19 05:50:17;;;;;;;6.40;1.70;;;;;;;;;;4922744;29;20047;-64
2023/05/19 05:52:46;;;;;;;5.85;1.77;;;;;;;;;;4928186;29;20382;-65
2023/05/19 05:55:12;;;;;;;6.05;2.25;;;;;;;;;;4929825;29;20041;-64
2023/05/19 05:57:40;;;;;;;4.35;2.80;;;;;;;;;;4923493;29;20461;-63
2023/05/19 06:00:09;;;;;;;3.75;1.70;;;;;;;;;;4929430;29;20365;-64
2023/05/19 06:02:35;;;;;;;4.93;2.25;;;;;;;;;;4925564;29;20024;-64
2023/05/19 06:05:01;;;;;;;2.78;1.15;;;;;;;;;;4930039;29;20019;-63
2023/05/19 06:07:26;;;;;;;4.15;1.70;;;;;;;;;;4929900;29;20658;-64
2023/05/19 06:09:52;;;;;;;5.90;1.75;;;;;;;;;;4929598;29;20531;-65
2023/05/19 06:12:17;;;;;;;3.42;2.00;;;;;;;;;;4925257;29;20384;-64
2023/05/19 06:14:43;;;;;;;3.15;1.48;;;;;;;;;;4927272;29;20099;-63
2023/05/19 06:17:08;;;;;;;2.95;1.77;;;;;;;;;;4931966;29;20028;-64
2023/05/19 06:19:33;;;;;;;5.22;1.70;;;;;;;;;;4929306;29;20558;-64
2023/05/19 06:21:59;;;;;;;3.88;2.08;;;;;;;;;;4929944;29;20042;-64
2023/05/19 06:24:24;;;;;;;6.18;2.10;;;;;;;;;;4928075;29;20042;-63
2023/05/19 06:26:49;;;;;;;2.42;1.27;;;;;;;;;;4928992;29;20086;-63
2023/05/19 06:29:16;;;;;;;2.85;2.05;;;;;;;;;;4925071;29;20549;-63
2023/05/19 06:31:41;;;;;;;4.53;2.13;;;;;;;;;;4926709;29;20033;-63
2023/05/19 06:34:09;;;;;;;5.75;2.63;;;;;;;;;;4922951;29;20111;-64
2023/05/19 06:36:34;;;;;;;3.85;1.75;;;;;;;;;;4928368;29;20027;-62
2023/05/19 06:39:00;;;;;;;4.78;2.53;;;;;;;;;;4929348;29;20106;-64
2023/05/19 06:41:25;;;;;;;4.32;2.38;;;;;;;;;;4929086;29;20047;-64
2023/05/19 06:43:50;;;;;;;4.95;2.05;;;;;;;;;;4928273;29;20114;-64
2023/05/19 06:46:16;;;;;;;7.00;2.25;;;;;;;;;;4925269;29;20024;-65
2023/05/19 06:48:42;;;;;;;6.68;2.33;;;;;;;;;;4922876;29;20696;-63
2023/05/19 06:51:09;;;;;;;3.28;1.67;;;;;;;;;;4925183;29;20034;-63
2023/05/19 06:53:34;;;;;;;4.65;2.30;;;;;;;;;;4922861;29;20028;-64
2023/05/19 06:55:59;;;;;;;2.83;1.95;;;;;;;;;;4927548;29;20511;-63
2023/05/19 06:58:25;;;;;;;2.92;2.00;;;;;;;;;;4930528;29;20028;-66
2023/05/19 07:00:51;;;;;;;3.92;1.98;;;;;;;;;;4932071;29;20039;-65
2023/05/19 07:03:16;;;;;;;2.08;1.48;;;;;;;;;;4931311;29;20031;-63
2023/05/19 07:05:41;;;;;;;5.30;2.40;;;;;;;;;;4931484;29;20027;-63
2023/05/19 07:08:07;;;;;;;3.65;2.38;;;;;;;;;;4923484;29;20263;-64
2023/05/19 07:10:32;;;;;;;2.08;1.45;;;;;;;;;;4931216;29;20109;-65
2023/05/19 07:12:58;;;;;;;2.38;1.15;;;;;;;;;;4931002;29;20548;-63
2023/05/19 07:15:23;;;;;;;0.50;0.50;;;;;;;;;;4928195;29;20043;-63
2023/05/19 07:17:48;;;;;;;5.32;2.28;;;;;;;;;;4929251;28;20031;-65
2023/05/19 07:20:14;;;;;;;3.63;2.00;;;;;;;;;;4931427;29;20031;-63
2023/05/19 07:22:39;;;;;;;4.25;2.15;;;;;;;;;;4932898;29;20062;-64
2023/05/19 07:25:08;;;;;;;3.92;1.55;;;;;;;;;;4932583;29;20111;-63
2023/05/19 07:27:33;;;;;;;6.45;2.15;;;;;;;;;;4927241;29;20571;-63
2023/05/19 07:29:59;;;;;;;3.70;1.67;;;;;;;;;;4931625;29;20075;-64
2023/05/19 07:32:24;;;;;;;4.80;2.03;;;;;;;;;;4931340;29;20382;-64
2023/05/19 07:34:50;;;;;;;3.00;2.13;;;;;;;;;;4932480;29;20023;-62
2023/05/19 07:37:15;;;;;;;1.73;1.00;;;;;;;;;;4932495;29;20027;-62
2023/05/19 07:39:41;;;;;;;4.80;2.17;;;;;;;;;;4930981;29;20031;-63
2023/05/19 07:42:06;;;;;;;3.03;1.75;;;;;;;;;;4932163;29;20019;-63
2023/05/19 07:44:32;;;;;;;6.63;1.98;;;;;;;;;;4932377;29;20102;-62
2023/05/19 07:46:57;;;;;;;4.38;1.88;;;;;;;;;;4934020;29;20031;-63
2023/05/19 07:49:23;;;;;;;2.83;1.90;;;;;;;;;;4927860;29;20032;-63
2023/05/19 07:51:48;;;;;;;2.95;1.83;;;;;;;;;;4929170;29;20448;-63
2023/05/19 07:54:14;;;;;;;3.53;1.92;;;;;;;;;;4931791;29;20644;-62
2023/05/19 07:56:40;;;;;;;5.47;2.13;;;;;;;;;;4933043;29;20118;-65
2023/05/19 07:59:06;;;;;;;4.95;2.53;;;;;;;;;;4932202;29;20027;-66
2023/05/19 08:01:32;;;;;;;3.85;2.10;;;;;;;;;;4928710;29;20040;-63
2023/05/19 08:03:57;;;;;;;4.80;1.77;;;;;;;;;;4930579;29;20032;-63
2023/05/19 08:06:24;;;;;;;4.32;2.08;;;;;;;;;;4930141;29;20016;-62
2023/05/19 08:08:49;;;;;;;3.38;2.17;;;;;;;;;;4930411;29;20026;-64
2023/05/19 08:11:15;;;;;;;3.17;2.00;;;;;;;;;;4931356;29;20535;-64
2023/05/19 08:13:40;;;;;;;2.80;1.85;;;;;;;;;;4930782;29;20464;-64
2023/05/19 08:16:06;;;;;;;2.58;1.60;;;;;;;;;;4936106;29;20106;-64
2023/05/19 08:18:31;;;;;;;4.53;1.65;;;;;;;;;;4929663;29;20019;-64
2023/05/19 08:20:56;;;;;;;4.30;2.08;;;;;;;;;;4926321;29;20090;-63
2023/05/19 08:23:22;;;;;;;5.00;1.83;;;;;;;;;;4931866;29;20058;-63
2023/05/19 08:25:47;;;;;;;4.07;1.77;;;;;;;;;;4931272;29;20114;-63
2023/05/19 08:28:13;;;;;;;5.72;2.17;;;;;;;;;;4927167;29;20020;-64
2023/05/19 08:30:38;;;;;;;4.45;1.60;;;;;;;;;;4935214;29;20023;-64
2023/05/19 08:33:04;;;;;;;3.00;1.67;;;;;;;;;;4923524;29;20081;-62
2023/05/19 08:35:29;;;;;;;4.63;1.95;;;;;;;;;;4930720;29;20063;-63
2023/05/19 08:37:55;;;;;;;3.05;1.40;;;;;;;;;;4931637;29;20039;-63
2023/05/19 08:40:21;;;;;;;2.65;1.55;;;;;;;;;;4929934;29;20035;-64
2023/05/19 08:42:46;;;;;;;3.50;1.85;;;;;;;;;;4931705;29;20020;-63
2023/05/19 08:45:12;;;;;;;3.58;1.42;;;;;;;;;;4928691;28;20031;-63
2023/05/19 08:47:41;;;;;;;4.80;1.85;;;;;;;;;;4928605;28;20023;-66
2023/05/19 08:50:09;;;;;;;2.75;1.55;;;;;;;;;;4930417;29;20389;-64
2023/05/19 08:52:49;;;;;;;4.82;1.85;;;;;;;;;;4931334;29;20501;-63
2023/05/19 08:55:27;;;;;;;3.20;1.30;;;;;;;;;;4930153;29;20079;-64
2023/05/19 08:57:53;;;;;;;4.45;2.05;;;;;;;;;;4930396;29;20587;-63
2023/05/19 09:00:19;;;;;;;4.35;1.52;;;;;;;;;;4931845;29;20027;-64
2023/05/19 09:02:47;;;;;;;4.22;1.85;;;;;;;;;;4932877;28;20031;-64
2023/05/19 09:05:15;;;;;;;2.47;1.40;;;;;;;;;;4930793;29;20109;-62
2023/05/19 09:07:42;;;;;;;2.38;0.73;;;;;;;;;;4931110;29;20031;-64
2023/05/19 09:10:12;;;;;;;2.50;1.38;;;;;;;;;;4929821;29;20919;-63
2023/05/19 09:12:38;;;;;;;1.88;1.33;;;;;;;;;;4934172;29;20132;-64
2023/05/19 09:15:04;;;;;;;3.38;1.48;;;;;;;;;;4928955;29;20102;-63
2023/05/19 09:17:30;;;;;;;1.80;1.33;;;;;;;;;;4929046;29;20030;-63
2023/05/19 09:19:55;;;;;;;3.33;1.77;;;;;;;;;;4926171;29;20032;-63
2023/05/19 09:22:24;;;;;;;2.03;1.17;;;;;;;;;;4931192;29;20512;-64
2023/05/19 09:24:49;;;;;;;6.10;1.70;;;;;;;;;;4929116;29;20028;-63
2023/05/19 09:27:21;;;;;;;5.60;1.70;;;;;;;;;;4930575;29;20445;-64
2023/05/19 09:29:47;;;;;;;3.97;1.60;;;;;;;;;;4930340;29;20027;-64
2023/05/19 09:32:24;;;;;;;2.10;1.70;;;;;;;;;;4930126;29;20385;-65
2023/05/19 09:34:49;;;;;;;3.33;1.38;;;;;;;;;;4929733;29;20026;-64
2023/05/19 09:37:15;;;;;;;2.30;1.35;;;;;;;;;;4925204;29;20023;-66
2023/05/19 09:39:40;;;;;;;2.85;1.50;;;;;;;;;;4930412;29;20058;-63
2023/05/19 09:42:06;;;;;;;1.58;1.13;;;;;;;;;;4929429;29;20043;-64
2023/05/19 09:44:34;;;;;;;6.10;1.65;;;;;;;;;;4930362;29;20034;-63
2023/05/19 09:46:59;;;;;;;2.55;1.60;;;;;;;;;;4928907;29;20071;-63
2023/05/19 09:49:30;;;;;;;3.05;1.15;;;;;;;;;;4929999;29;20055;-63
2023/05/19 09:52:02;;;;;;;2.35;1.15;;;;;;;;;;4930339;29;20035;-64
2023/05/19 09:54:30;;;;;;;2.63;1.13;;;;;;;;;;4926775;29;20020;-65
2023/05/19 09:57:02;;;;;;;2.35;1.30;;;;;;;;;;4929206;29;20059;-64
2023/05/19 09:59:29;;;;;;;2.80;1.00;;;;;;;;;;4930602;29;20434;-64
2023/05/19 10:01:56;;;;;;;2.70;1.20;;;;;;;;;;4928074;28;20039;-64
2023/05/19 10:04:24;;;;;;;3.42;1.30;;;;;;;;;;4928238;29;20031;-64
2023/05/19 10:06:52;;;;;;;2.78;1.30;;;;;;;;;;4930077;29;20020;-64
2023/05/19 10:09:26;;;;;;;2.20;1.30;;;;;;;;;;4930002;29;20047;-64
2023/05/19 10:11:54;;;;;;;4.32;1.70;;;;;;;;;;4929632;29;20026;-65
2023/05/19 10:14:27;;;;;;;2.28;1.30;;;;;;;;;;4927917;29;20040;-63
2023/05/19 10:16:54;;;;;;;2.20;1.33;;;;;;;;;;4931716;29;20030;-65
2023/05/19 10:19:24;;;;;;;2.53;1.30;;;;;;;;;;4929900;29;20911;-64
2023/05/19 10:21:50;;;;;;;2.78;0.90;;;;;;;;;;4929515;29;20066;-66
2023/05/19 10:24:16;;;;;;;3.03;1.38;;;;;;;;;;4927349;29;20516;-66
2023/05/19 10:26:55;;;;;;;1.52;0.95;;;;;;;;;;4925512;29;20032;-64
2023/05/19 10:29:26;;;;;;;4.72;1.35;;;;;;;;;;4928400;29;20026;-64
2023/05/19 10:31:55;;;;;;;3.03;1.35;;;;;;;;;;4929017;29;20482;-64
2023/05/19 10:34:27;;;;;;;2.22;1.23;;;;;;;;;;4925686;28;20464;-64
2023/05/19 10:37:04;;;;;;;2.38;1.20;;;;;;;;;;4928668;29;20036;-65
2023/05/19 10:39:36;;;;;;;1.80;1.20;;;;;;;;;;4929082;29;20408;-64
2023/05/19 10:42:32;;;;;;;2.47;1.20;;;;;;;;;;4929664;29;20056;-64
2023/05/19 10:45:04;;;;;;;2.13;1.15;;;;;;;;;;4928889;29;20016;-65
2023/05/19 10:47:31;;;;;;;1.55;1.02;;;;;;;;;;4927344;29;20039;-63
2023/05/19 10:49:59;;;;;;;2.40;1.20;;;;;;;;;;4929851;29;20024;-65
2023/05/19 10:52:28;;;;;;;2.55;1.30;;;;;;;;;;4923785;29;21689;-63
2023/05/19 10:54:53;;;;;;;1.77;1.10;;;;;;;;;;4929484;29;20024;-66
2023/05/19 10:57:26;;;;;;;3.88;1.23;;;;;;;;;;4929890;29;20078;-63
2023/05/19 10:59:51;;;;;;;2.65;1.10;;;;;;;;;;4927304;29;20023;-66
2023/05/19 11:02:40;;;;;;;3.35;1.20;;;;;;;;;;4929148;29;20488;-63
2023/05/19 11:05:15;;;;;;;3.42;1.15;;;;;;;;;;4925510;29;20038;-64
2023/05/19 11:07:54;;;;;;;2.60;1.13;;;;;;;;;;4929727;29;20016;-63
2023/05/19 11:10:24;;;;;;;3.60;1.40;;;;;;;;;;4927710;29;20057;-66
2023/05/19 11:12:50;;;;;;;1.88;1.30;;;;;;;;;;4929187;29;20039;-64
2023/05/19 11:15:16;;;;;;;1.75;1.23;;;;;;;;;;4933078;29;20023;-65
2023/05/19 11:17:47;;;;;;;3.47;1.50;;;;;;;;;;4926461;28;20472;-64
2023/05/19 11:20:23;;;;;;;3.03;1.30;;;;;;;;;;4930434;29;20035;-65
2023/05/19 11:23:05;;;;;;;2.78;1.52;;;;;;;;;;4927313;29;20118;-64
2023/05/19 11:25:47;;;;;;;3.03;1.45;;;;;;;;;;4926506;29;20105;-66
2023/05/19 11:28:21;;;;;;;1.80;0.93;;;;;;;;;;4927396;29;20027;-63
2023/05/19 11:30:50;;;;;;;1.88;1.25;;;;;;;;;;4931870;29;20082;-65
2023/05/19 11:33:19;;;;;;;5.07;1.25;;;;;;;;;;4925433;29;20035;-64
2023/05/19 11:35:49;;;;;;;1.92;1.00;;;;;;;;;;4929260;29;20050;-63
2023/05/19 11:38:17;;;;;;;1.38;1.00;;;;;;;;;;4929253;29;20030;-66
2023/05/19 11:40:43;;;;;;;1.83;1.17;;;;;;;;;;4925416;29;20063;-65
2023/05/19 11:43:08;;;;;;;3.35;1.05;;;;;;;;;;4925834;29;20137;-64
2023/05/19 11:45:34;;;;;;;5.75;1.42;;;;;;;;;;4935760;29;20031;-65
2023/05/19 11:48:01;;;;;;;3.70;1.83;;;;;;;;;;4929220;28;20095;-64
2023/05/19 11:50:27;;;;;;;3.75;1.48;;;;;;;;;;4931771;29;20028;-64
2023/05/19 11:52:53;;;;;;;2.45;1.02;;;;;;;;;;4932231;29;20011;-64
2023/05/19 11:55:22;;;;;;;2.35;1.15;;;;;;;;;;4931630;29;20024;-64
2023/05/19 11:57:58;;;;;;;2.95;1.33;;;;;;;;;;4932337;29;20034;-65
2023/05/19 12:00:47;;;;;;;2.17;0.70;;;;;;;;;;4931167;29;20023;-64
2023/05/19 12:03:12;;;;;;;1.60;0.93;;;;;;;;;;4930133;29;20026;-65
2023/05/19 12:05:43;;;;;;;1.45;0.88;;;;;;;;;;4930860;29;20103;-65
2023/05/19 12:08:08;;;;;;;1.88;1.15;;;;;;;;;;4931752;29;20059;-65
2023/05/19 12:10:34;;;;;;;3.40;1.20;;;;;;;;;;4930263;29;20031;-64
2023/05/19 12:13:00;;;;;;;1.90;0.95;;;;;;;;;;4951442;23;20510;-69
2023/05/19 12:15:26;;;;;;;2.92;1.10;;;;;;;;;;4956067;28;20090;-69
2023/05/19 12:18:00;;;;;;;3.65;1.25;;;;;;;;;;4951213;28;20027;-69
2023/05/19 12:20:27;;;;;;;1.10;0.90;;;;;;;;;;4951639;28;20042;-69
2023/05/19 12:22:55;;;;;;;4.18;1.77;;;;;;;;;;4955060;28;20475;-69
2023/05/19 12:25:21;;;;;;;3.45;1.20;;;;;;;;;;4953279;28;20039;-69
2023/05/19 12:27:48;;;;;;;2.55;0.98;;;;;;;;;;4956506;28;20098;-67
2023/05/19 12:30:15;;;;;;;2.38;0.82;;;;;;;;;;4954690;28;20031;-67
2023/05/19 12:32:42;;;;;;;1.00;0.68;;;;;;;;;;4958074;28;20499;-68
2023/05/19 12:35:08;;;;;;;3.35;1.17;;;;;;;;;;4953862;28;20067;-70
2023/05/19 12:37:35;;;;;;;2.35;1.10;;;;;;;;;;4950089;28;20039;-69
2023/05/19 12:40:02;;;;;;;2.88;1.30;;;;;;;;;;4955661;28;20024;-67
2023/05/19 12:42:33;;;;;;;2.58;1.30;;;;;;;;;;4957595;28;20102;-69
2023/05/19 12:45:01;;;;;;;3.05;1.10;;;;;;;;;;4959193;28;20054;-68
2023/05/19 12:47:32;;;;;;;2.33;0.85;;;;;;;;;;4953515;28;20109;-69
2023/05/19 12:50:08;;;;;;;2.28;1.10;;;;;;;;;;4950478;28;20123;-68
2023/05/19 12:52:41;;;;;;;1.55;1.17;;;;;;;;;;4950614;28;20030;-70
2023/05/19 12:55:09;;;;;;;1.98;1.20;;;;;;;;;;4953476;28;20391;-68
2023/05/19 12:57:37;;;;;;;2.58;1.30;;;;;;;;;;4960492;28;20022;-69
2023/05/19 13:00:11;;;;;;;1.75;0.70;;;;;;;;;;4953658;28;20070;-67
2023/05/19 13:02:54;;;;;;;2.22;1.45;;;;;;;;;;4946509;28;20037;-69
2023/05/19 13:05:20;;;;;;;1.50;1.10;;;;;;;;;;4955648;28;20098;-70
2023/05/19 13:08:09;;;;;;;1.88;1.00;;;;;;;;;;4952248;28;20031;-67
2023/05/19 13:10:36;;;;;;;2.67;0.95;;;;;;;;;;4947174;28;20718;-67
2023/05/19 13:13:03;;;;;;;1.75;1.05;;;;;;;;;;4958187;28;20086;-69
2023/05/19 13:15:30;;;;;;;2.25;1.08;;;;;;;;;;4954928;28;20058;-68
2023/05/19 13:17:56;;;;;;;2.83;1.10;;;;;;;;;;4957960;28;20376;-69
2023/05/19 13:20:22;;;;;;;1.92;0.93;;;;;;;;;;4953692;28;20110;-68
2023/05/19 13:22:49;;;;;;;2.22;1.13;;;;;;;;;;4953138;28;20038;-70
2023/05/19 13:25:14;;;;;;;2.78;0.90;;;;;;;;;;4958009;28;20699;-69
2023/05/19 13:27:40;;;;;;;2.92;1.08;;;;;;;;;;4949407;28;20090;-69
2023/05/19 13:30:06;;;;;;;3.72;1.30;;;;;;;;;;4959555;28;20030;-66
2023/05/19 13:32:32;;;;;;;2.70;0.90;;;;;;;;;;4956713;28;20035;-68
2023/05/19 13:34:58;;;;;;;1.85;1.02;;;;;;;;;;4949343;28;20624;-67
2023/05/19 13:37:24;;;;;;;1.50;0.95;;;;;;;;;;4960589;28;20035;-69
2023/05/19 13:39:49;;;;;;;6.20;1.25;;;;;;;;;;4955163;28;20023;-67
2023/05/19 13:42:16;;;;;;;1.95;0.80;;;;;;;;;;4954876;28;20673;-69
2023/05/19 13:44:42;;;;;;;2.88;1.35;;;;;;;;;;4950741;28;20027;-70
2023/05/19 13:47:07;;;;;;;2.60;1.20;;;;;;;;;;4949360;28;20480;-69
2023/05/19 13:49:32;;;;;;;1.58;0.82;;;;;;;;;;4956986;28;20130;-67
2023/05/19 13:51:58;;;;;;;1.50;1.20;;;;;;;;;;4953865;28;20711;-70
2023/05/19 13:54:24;;;;;;;1.95;1.00;;;;;;;;;;4957341;28;20031;-69
2023/05/19 13:56:49;;;;;;;3.45;1.10;;;;;;;;;;4956263;28;20023;-69
2023/05/19 13:59:18;;;;;;;2.60;1.38;;;;;;;;;;4953681;28;20023;-69
2023/05/19 14:01:44;;;;;;;1.63;0.90;;;;;;;;;;4953756;28;20045;-70
2023/05/19 14:04:09;;;;;;;3.13;0.90;;;;;;;;;;4957408;28;20023;-69
2023/05/19 14:06:35;;;;;;;1.67;0.93;;;;;;;;;;4956551;28;20034;-69
2023/05/19 14:09:01;;;;;;;2.05;1.00;;;;;;;;;;4953738;28;20023;-69
2023/05/19 14:11:27;;;;;;;1.05;0.80;;;;;;;;;;4952030;28;20517;-69
2023/05/19 14:13:52;;;;;;;3.20;1.00;;;;;;;;;;4953550;28;20058;-67
2023/05/19 14:16:19;;;;;;;1.30;0.73;;;;;;;;;;4950569;28;20039;-69
2023/05/19 14:18:44;;;;;;;2.45;0.80;;;;;;;;;;4958007;28;20030;-69
2023/05/19 14:21:10;;;;;;;1.50;0.80;;;;;;;;;;4957091;28;20118;-67
2023/05/19 14:23:35;;;;;;;1.63;1.00;;;;;;;;;;4960542;28;20114;-67
2023/05/19 14:26:00;;;;;;;1.35;0.82;;;;;;;;;;4957948;28;20032;-69
2023/05/19 14:28:26;;;;;;;1.73;0.98;;;;;;;;;;4957422;28;20030;-69
2023/05/19 14:30:51;;;;;;;3.58;1.02;;;;;;;;;;4945907;28;20038;-70
2023/05/19 14:33:18;;;;;;;0.90;0.75;;;;;;;;;;4945429;28;20051;-68
2023/05/19 14:35:43;;;;;;;1.23;0.70;;;;;;;;;;4946886;28;20024;-69
2023/05/19 14:38:09;;;;;;;1.65;0.80;;;;;;;;;;4949574;28;20082;-69
2023/05/19 14:40:40;;;;;;;3.33;1.30;;;;;;;;;;4947531;28;20023;-67
2023/05/19 14:43:05;;;;;;;;;;;;;;;;;;4952915;28;20023;-67
2023/05/19 14:45:31;;;;;;;2.83;0.90;;;;;;;;;;4960987;28;19925;-67
2023/05/19 14:47:56;;;;;;;2.03;1.00;;;;;;;;;;4955363;28;20113;-66